KALW/ALW METAR and TAF weather

Enter ICAO airport designator
Station Type Date Time Source
KALW METAR 2021/07/30 23:53 UTC NOAA

KALW 302353Z 03014KT 10SM CLR 42/03 A2985 RMK AO2 SLP097 T04220028 10428 20306 56022


Station Type Date Time Source
KALW Decoded METAR 2021/07/30 23:53 UTC NOAA

WALLA WALLA REGIONAL AIRPORT, WA, United States (KALW) 46-06N 118-17W 363M
Jul 30, 2021 - 07:53 PM EDT / 2021.07.30 2353 UTC
Wind: from the NNE (030 degrees) at 16 MPH (14 KT):0
Visibility: 10 mile(s):0
Sky conditions: clear
Temperature: 108.0 F (42.2 C)
Dew Point: 37.0 F (2.8 C)
Relative Humidity: 9%
Pressure (altimeter): 29.85 in. Hg (1010 hPa)
Pressure tendency: 0.06 inches (2.2 hPa) lower than three hours ago
ob: KALW 302353Z 03014KT 10SM CLR 42/03 A2985 RMK AO2 SLP097 T04220028 10428 20306 56022
cycle: 0

Station Type Date Time Source
KALW TAF 2021/07/31 01:36 UTC NOAA

TAF
AMD KALW 310032Z 3101/3124 03014G20KT P6SM BKN200
FM310400 13006KT P6SM SCT150 BKN200
FM311600 23008KT P6SM SCT150 BKN200

Example: see airport list